sensor_id;sensor_type;location;lat;lon;timestamp;P1;durP1;ratioP1;P2;durP2;ratioP2
72087;SDS011;59961;50.232;8.616;2022-12-18T00:00:24;16.40;;;6.72;;
72087;SDS011;59961;50.232;8.616;2022-12-18T00:02:49;15.70;;;5.47;;
72087;SDS011;59961;50.232;8.616;2022-12-18T00:05:14;13.02;;;5.85;;
72087;SDS011;59961;50.232;8.616;2022-12-18T00:07:39;14.30;;;5.90;;
72087;SDS011;59961;50.232;8.616;2022-12-18T00:10:05;17.50;;;7.40;;
72087;SDS011;59961;50.232;8.616;2022-12-18T00:12:30;15.30;;;6.60;;
72087;SDS011;59961;50.232;8.616;2022-12-18T00:14:55;14.43;;;6.38;;
72087;SDS011;59961;50.232;8.616;2022-12-18T00:17:20;15.67;;;6.00;;
72087;SDS011;59961;50.232;8.616;2022-12-18T00:19:45;16.77;;;5.30;;
72087;SDS011;59961;50.232;8.616;2022-12-18T00:22:11;13.57;;;5.30;;
72087;SDS011;59961;50.232;8.616;2022-12-18T00:24:36;11.85;;;4.47;;
72087;SDS011;59961;50.232;8.616;2022-12-18T00:27:01;17.87;;;5.07;;
72087;SDS011;59961;50.232;8.616;2022-12-18T00:29:26;8.55;;;4.55;;
72087;SDS011;59961;50.232;8.616;2022-12-18T00:31:51;13.70;;;5.57;;
72087;SDS011;59961;50.232;8.616;2022-12-18T00:34:16;12.70;;;6.13;;
72087;SDS011;59961;50.232;8.616;2022-12-18T00:36:41;11.37;;;4.33;;
72087;SDS011;59961;50.232;8.616;2022-12-18T00:39:07;15.90;;;5.43;;
72087;SDS011;59961;50.232;8.616;2022-12-18T00:41:32;17.73;;;5.53;;
72087;SDS011;59961;50.232;8.616;2022-12-18T00:44:17;14.75;;;6.35;;
72087;SDS011;59961;50.232;8.616;2022-12-18T00:46:42;11.70;;;5.10;;
72087;SDS011;59961;50.232;8.616;2022-12-18T00:49:08;14.65;;;4.63;;
72087;SDS011;59961;50.232;8.616;2022-12-18T00:51:33;10.30;;;4.53;;
72087;SDS011;59961;50.232;8.616;2022-12-18T00:53:58;16.20;;;6.30;;
72087;SDS011;59961;50.232;8.616;2022-12-18T00:56:23;14.55;;;6.25;;
72087;SDS011;59961;50.232;8.616;2022-12-18T00:58:49;17.83;;;6.03;;
72087;SDS011;59961;50.232;8.616;2022-12-18T01:01:14;13.57;;;6.30;;
72087;SDS011;59961;50.232;8.616;2022-12-18T01:03:39;14.77;;;6.87;;
72087;SDS011;59961;50.232;8.616;2022-12-18T01:06:05;14.17;;;5.10;;
72087;SDS011;59961;50.232;8.616;2022-12-18T01:08:30;16.60;;;7.38;;
72087;SDS011;59961;50.232;8.616;2022-12-18T01:10:55;15.95;;;5.68;;
72087;SDS011;59961;50.232;8.616;2022-12-18T01:13:21;11.25;;;4.47;;
72087;SDS011;59961;50.232;8.616;2022-12-18T01:15:49;15.00;;;6.40;;
72087;SDS011;59961;50.232;8.616;2022-12-18T01:18:14;13.80;;;5.10;;
72087;SDS011;59961;50.232;8.616;2022-12-18T01:20:40;13.68;;;4.97;;
72087;SDS011;59961;50.232;8.616;2022-12-18T01:23:05;12.50;;;4.40;;
72087;SDS011;59961;50.232;8.616;2022-12-18T01:25:30;11.57;;;5.10;;
72087;SDS011;59961;50.232;8.616;2022-12-18T01:27:55;14.02;;;5.05;;
72087;SDS011;59961;50.232;8.616;2022-12-18T01:30:20;14.40;;;5.10;;
72087;SDS011;59961;50.232;8.616;2022-12-18T01:32:45;12.87;;;5.27;;
72087;SDS011;59961;50.232;8.616;2022-12-18T01:35:10;13.88;;;6.03;;
72087;SDS011;59961;50.232;8.616;2022-12-18T01:37:36;14.98;;;5.13;;
72087;SDS011;59961;50.232;8.616;2022-12-18T01:40:01;7.63;;;4.00;;
72087;SDS011;59961;50.232;8.616;2022-12-18T01:42:26;12.47;;;5.43;;
72087;SDS011;59961;50.232;8.616;2022-12-18T01:44:59;16.57;;;5.43;;
72087;SDS011;59961;50.232;8.616;2022-12-18T01:47:35;15.18;;;6.18;;
72087;SDS011;59961;50.232;8.616;2022-12-18T01:50:09;11.75;;;4.95;;
72087;SDS011;59961;50.232;8.616;2022-12-18T01:52:35;16.90;;;6.40;;
72087;SDS011;59961;50.232;8.616;2022-12-18T01:55:01;14.90;;;7.13;;
72087;SDS011;59961;50.232;8.616;2022-12-18T01:57:29;14.33;;;6.60;;
72087;SDS011;59961;50.232;8.616;2022-12-18T01:59:55;15.90;;;5.40;;
72087;SDS011;59961;50.232;8.616;2022-12-18T02:02:21;15.80;;;5.47;;
72087;SDS011;59961;50.232;8.616;2022-12-18T02:04:47;14.13;;;6.57;;
72087;SDS011;59961;50.232;8.616;2022-12-18T02:07:27;14.82;;;5.47;;
72087;SDS011;59961;50.232;8.616;2022-12-18T02:09:57;13.25;;;4.85;;
72087;SDS011;59961;50.232;8.616;2022-12-18T02:12:23;11.27;;;5.50;;
72087;SDS011;59961;50.232;8.616;2022-12-18T02:17:18;11.65;;;4.25;;
72087;SDS011;59961;50.232;8.616;2022-12-18T02:22:42;14.15;;;5.20;;
72087;SDS011;59961;50.232;8.616;2022-12-18T02:27:52;15.90;;;5.43;;
72087;SDS011;59961;50.232;8.616;2022-12-18T02:30:18;15.03;;;5.67;;
72087;SDS011;59961;50.232;8.616;2022-12-18T02:32:45;12.57;;;4.93;;
72087;SDS011;59961;50.232;8.616;2022-12-18T02:35:12;13.70;;;5.25;;
72087;SDS011;59961;50.232;8.616;2022-12-18T02:37:39;16.63;;;5.53;;
72087;SDS011;59961;50.232;8.616;2022-12-18T02:40:05;14.43;;;5.90;;
72087;SDS011;59961;50.232;8.616;2022-12-18T02:42:30;12.73;;;5.37;;
72087;SDS011;59961;50.232;8.616;2022-12-18T02:44:56;9.37;;;4.57;;
72087;SDS011;59961;50.232;8.616;2022-12-18T02:47:22;10.57;;;4.27;;
72087;SDS011;59961;50.232;8.616;2022-12-18T02:55:15;8.80;;;4.97;;
72087;SDS011;59961;50.232;8.616;2022-12-18T02:57:44;13.50;;;4.90;;
72087;SDS011;59961;50.232;8.616;2022-12-18T03:00:20;10.67;;;4.33;;
72087;SDS011;59961;50.232;8.616;2022-12-18T03:05:31;7.93;;;4.10;;
72087;SDS011;59961;50.232;8.616;2022-12-18T03:07:59;9.73;;;4.53;;
72087;SDS011;59961;50.232;8.616;2022-12-18T03:10:29;8.77;;;4.43;;
72087;SDS011;59961;50.232;8.616;2022-12-18T03:13:00;13.47;;;5.63;;
72087;SDS011;59961;50.232;8.616;2022-12-18T03:15:37;16.75;;;4.60;;
72087;SDS011;59961;50.232;8.616;2022-12-18T03:18:04;14.07;;;4.47;;
72087;SDS011;59961;50.232;8.616;2022-12-18T03:20:32;9.23;;;4.00;;
72087;SDS011;59961;50.232;8.616;2022-12-18T03:22:59;11.95;;;4.00;;
72087;SDS011;59961;50.232;8.616;2022-12-18T03:25:27;15.20;;;5.07;;
72087;SDS011;59961;50.232;8.616;2022-12-18T03:27:53;11.50;;;4.35;;
72087;SDS011;59961;50.232;8.616;2022-12-18T03:30:20;11.82;;;4.88;;
72087;SDS011;59961;50.232;8.616;2022-12-18T03:32:50;8.47;;;4.00;;
72087;SDS011;59961;50.232;8.616;2022-12-18T03:35:19;11.73;;;5.20;;
72087;SDS011;59961;50.232;8.616;2022-12-18T03:37:46;11.60;;;5.03;;
72087;SDS011;59961;50.232;8.616;2022-12-18T03:40:11;9.77;;;3.87;;
72087;SDS011;59961;50.232;8.616;2022-12-18T03:42:47;15.77;;;4.57;;
72087;SDS011;59961;50.232;8.616;2022-12-18T03:45:22;8.93;;;3.40;;
72087;SDS011;59961;50.232;8.616;2022-12-18T03:47:53;11.00;;;4.15;;
72087;SDS011;59961;50.232;8.616;2022-12-18T03:50:27;9.45;;;3.83;;
72087;SDS011;59961;50.232;8.616;2022-12-18T03:52:56;10.38;;;4.32;;
72087;SDS011;59961;50.232;8.616;2022-12-18T03:55:22;8.83;;;3.30;;
72087;SDS011;59961;50.232;8.616;2022-12-18T03:57:48;18.17;;;4.47;;
72087;SDS011;59961;50.232;8.616;2022-12-18T04:00:16;6.80;;;3.55;;
72087;SDS011;59961;50.232;8.616;2022-12-18T04:02:45;8.85;;;3.72;;
72087;SDS011;59961;50.232;8.616;2022-12-18T04:05:13;11.90;;;3.77;;
72087;SDS011;59961;50.232;8.616;2022-12-18T04:07:39;8.63;;;4.03;;
72087;SDS011;59961;50.232;8.616;2022-12-18T04:10:05;11.77;;;4.35;;
72087;SDS011;59961;50.232;8.616;2022-12-18T04:12:31;10.30;;;3.72;;
72087;SDS011;59961;50.232;8.616;2022-12-18T04:14:56;10.30;;;4.03;;
72087;SDS011;59961;50.232;8.616;2022-12-18T04:17:21;9.80;;;4.23;;
72087;SDS011;59961;50.232;8.616;2022-12-18T04:19:47;14.15;;;4.72;;
72087;SDS011;59961;50.232;8.616;2022-12-18T04:22:12;16.15;;;4.57;;
72087;SDS011;59961;50.232;8.616;2022-12-18T04:24:37;9.70;;;3.27;;
72087;SDS011;59961;50.232;8.616;2022-12-18T04:27:03;13.70;;;4.40;;
72087;SDS011;59961;50.232;8.616;2022-12-18T04:29:28;9.47;;;3.73;;
72087;SDS011;59961;50.232;8.616;2022-12-18T04:31:53;7.03;;;3.27;;
72087;SDS011;59961;50.232;8.616;2022-12-18T04:34:19;8.47;;;3.30;;
72087;SDS011;59961;50.232;8.616;2022-12-18T04:36:44;6.23;;;3.23;;
72087;SDS011;59961;50.232;8.616;2022-12-18T04:39:09;10.18;;;4.53;;
72087;SDS011;59961;50.232;8.616;2022-12-18T04:41:34;9.20;;;4.18;;
72087;SDS011;59961;50.232;8.616;2022-12-18T04:43:59;11.37;;;3.70;;
72087;SDS011;59961;50.232;8.616;2022-12-18T04:46:24;12.50;;;4.63;;
72087;SDS011;59961;50.232;8.616;2022-12-18T04:48:50;13.23;;;5.00;;
72087;SDS011;59961;50.232;8.616;2022-12-18T04:51:15;10.00;;;4.05;;
72087;SDS011;59961;50.232;8.616;2022-12-18T04:53:40;7.83;;;3.43;;
72087;SDS011;59961;50.232;8.616;2022-12-18T04:56:06;8.25;;;4.13;;
72087;SDS011;59961;50.232;8.616;2022-12-18T04:58:31;9.25;;;3.65;;
72087;SDS011;59961;50.232;8.616;2022-12-18T05:00:57;10.80;;;4.57;;
72087;SDS011;59961;50.232;8.616;2022-12-18T05:03:22;9.63;;;3.28;;
72087;SDS011;59961;50.232;8.616;2022-12-18T05:05:50;12.70;;;4.77;;
72087;SDS011;59961;50.232;8.616;2022-12-18T05:08:16;10.90;;;3.75;;
72087;SDS011;59961;50.232;8.616;2022-12-18T05:10:41;12.50;;;3.78;;
72087;SDS011;59961;50.232;8.616;2022-12-18T05:13:06;9.27;;;3.38;;
72087;SDS011;59961;50.232;8.616;2022-12-18T05:15:32;7.00;;;3.07;;
72087;SDS011;59961;50.232;8.616;2022-12-18T05:17:57;9.15;;;3.83;;
72087;SDS011;59961;50.232;8.616;2022-12-18T05:20:23;8.80;;;3.80;;
72087;SDS011;59961;50.232;8.616;2022-12-18T05:22:48;9.07;;;3.73;;
72087;SDS011;59961;50.232;8.616;2022-12-18T05:25:13;9.03;;;4.87;;
72087;SDS011;59961;50.232;8.616;2022-12-18T05:27:38;11.00;;;3.67;;
72087;SDS011;59961;50.232;8.616;2022-12-18T05:30:03;8.82;;;3.47;;
72087;SDS011;59961;50.232;8.616;2022-12-18T05:32:29;10.93;;;5.23;;
72087;SDS011;59961;50.232;8.616;2022-12-18T05:34:54;9.65;;;4.57;;
72087;SDS011;59961;50.232;8.616;2022-12-18T05:37:19;13.03;;;5.07;;
72087;SDS011;59961;50.232;8.616;2022-12-18T05:39:44;9.17;;;3.90;;
72087;SDS011;59961;50.232;8.616;2022-12-18T05:42:09;9.80;;;3.75;;
72087;SDS011;59961;50.232;8.616;2022-12-18T05:44:34;9.27;;;2.80;;
72087;SDS011;59961;50.232;8.616;2022-12-18T05:46:59;15.00;;;5.27;;
72087;SDS011;59961;50.232;8.616;2022-12-18T05:49:25;8.75;;;3.40;;
72087;SDS011;59961;50.232;8.616;2022-12-18T05:51:50;10.10;;;3.87;;
72087;SDS011;59961;50.232;8.616;2022-12-18T05:54:15;9.43;;;3.30;;
72087;SDS011;59961;50.232;8.616;2022-12-18T05:56:40;10.63;;;4.78;;
72087;SDS011;59961;50.232;8.616;2022-12-18T05:59:05;11.60;;;4.27;;
72087;SDS011;59961;50.232;8.616;2022-12-18T06:01:30;12.15;;;3.70;;
72087;SDS011;59961;50.232;8.616;2022-12-18T06:03:56;8.47;;;3.60;;
72087;SDS011;59961;50.232;8.616;2022-12-18T06:06:22;9.73;;;4.23;;
72087;SDS011;59961;50.232;8.616;2022-12-18T06:08:47;8.50;;;3.13;;
72087;SDS011;59961;50.232;8.616;2022-12-18T06:11:15;12.67;;;4.60;;
72087;SDS011;59961;50.232;8.616;2022-12-18T06:13:40;9.30;;;4.13;;
72087;SDS011;59961;50.232;8.616;2022-12-18T06:16:06;9.48;;;3.92;;
72087;SDS011;59961;50.232;8.616;2022-12-18T06:18:31;13.77;;;4.23;;
72087;SDS011;59961;50.232;8.616;2022-12-18T06:20:57;16.27;;;5.47;;
72087;SDS011;59961;50.232;8.616;2022-12-18T06:23:23;14.35;;;4.55;;
72087;SDS011;59961;50.232;8.616;2022-12-18T06:25:48;12.03;;;4.77;;
72087;SDS011;59961;50.232;8.616;2022-12-18T06:28:13;10.57;;;3.92;;
72087;SDS011;59961;50.232;8.616;2022-12-18T06:30:38;12.82;;;4.93;;
72087;SDS011;59961;50.232;8.616;2022-12-18T06:33:03;12.30;;;4.10;;
72087;SDS011;59961;50.232;8.616;2022-12-18T06:35:29;8.80;;;3.50;;
72087;SDS011;59961;50.232;8.616;2022-12-18T06:37:54;10.57;;;4.77;;
72087;SDS011;59961;50.232;8.616;2022-12-18T06:40:19;11.37;;;3.87;;
72087;SDS011;59961;50.232;8.616;2022-12-18T06:42:44;12.60;;;4.33;;
72087;SDS011;59961;50.232;8.616;2022-12-18T06:45:09;10.95;;;5.20;;
72087;SDS011;59961;50.232;8.616;2022-12-18T06:47:34;14.00;;;4.87;;
72087;SDS011;59961;50.232;8.616;2022-12-18T06:50:00;9.43;;;3.90;;
72087;SDS011;59961;50.232;8.616;2022-12-18T06:52:25;14.73;;;5.33;;
72087;SDS011;59961;50.232;8.616;2022-12-18T06:54:50;15.52;;;4.70;;
72087;SDS011;59961;50.232;8.616;2022-12-18T06:57:15;13.90;;;5.93;;
72087;SDS011;59961;50.232;8.616;2022-12-18T06:59:40;14.57;;;6.28;;
72087;SDS011;59961;50.232;8.616;2022-12-18T07:02:05;9.60;;;4.30;;
72087;SDS011;59961;50.232;8.616;2022-12-18T07:04:30;11.43;;;4.40;;
72087;SDS011;59961;50.232;8.616;2022-12-18T07:06:56;10.40;;;4.10;;
72087;SDS011;59961;50.232;8.616;2022-12-18T07:09:21;14.40;;;5.40;;
72087;SDS011;59961;50.232;8.616;2022-12-18T07:11:46;14.00;;;5.53;;
72087;SDS011;59961;50.232;8.616;2022-12-18T07:14:11;11.13;;;4.55;;
72087;SDS011;59961;50.232;8.616;2022-12-18T07:16:36;9.93;;;4.45;;
72087;SDS011;59961;50.232;8.616;2022-12-18T07:19:01;13.00;;;5.75;;
72087;SDS011;59961;50.232;8.616;2022-12-18T07:21:27;12.50;;;5.40;;
72087;SDS011;59961;50.232;8.616;2022-12-18T07:23:52;12.05;;;4.38;;
72087;SDS011;59961;50.232;8.616;2022-12-18T07:26:18;9.47;;;5.10;;
72087;SDS011;59961;50.232;8.616;2022-12-18T07:28:44;10.73;;;4.70;;
72087;SDS011;59961;50.232;8.616;2022-12-18T07:31:10;12.17;;;5.23;;
72087;SDS011;59961;50.232;8.616;2022-12-18T07:33:36;14.60;;;5.43;;
72087;SDS011;59961;50.232;8.616;2022-12-18T07:36:02;12.20;;;5.13;;
72087;SDS011;59961;50.232;8.616;2022-12-18T07:38:28;12.10;;;4.47;;
72087;SDS011;59961;50.232;8.616;2022-12-18T07:40:53;11.70;;;5.78;;
72087;SDS011;59961;50.232;8.616;2022-12-18T07:43:18;12.32;;;5.20;;
72087;SDS011;59961;50.232;8.616;2022-12-18T07:45:43;10.63;;;5.43;;
72087;SDS011;59961;50.232;8.616;2022-12-18T07:48:09;15.10;;;5.17;;
72087;SDS011;59961;50.232;8.616;2022-12-18T07:50:34;10.83;;;4.13;;
72087;SDS011;59961;50.232;8.616;2022-12-18T07:52:59;14.23;;;5.07;;
72087;SDS011;59961;50.232;8.616;2022-12-18T07:55:28;10.85;;;4.85;;
72087;SDS011;59961;50.232;8.616;2022-12-18T07:57:53;11.43;;;4.93;;
72087;SDS011;59961;50.232;8.616;2022-12-18T08:00:18;16.83;;;5.72;;
72087;SDS011;59961;50.232;8.616;2022-12-18T08:02:44;14.23;;;5.67;;
72087;SDS011;59961;50.232;8.616;2022-12-18T08:05:09;19.03;;;6.60;;
72087;SDS011;59961;50.232;8.616;2022-12-18T08:07:34;15.00;;;5.72;;
72087;SDS011;59961;50.232;8.616;2022-12-18T08:09:59;17.38;;;7.22;;
72087;SDS011;59961;50.232;8.616;2022-12-18T08:12:24;14.25;;;6.22;;
72087;SDS011;59961;50.232;8.616;2022-12-18T08:14:49;16.65;;;6.55;;
72087;SDS011;59961;50.232;8.616;2022-12-18T08:17:14;17.77;;;6.60;;
72087;SDS011;59961;50.232;8.616;2022-12-18T08:19:39;15.88;;;7.15;;
72087;SDS011;59961;50.232;8.616;2022-12-18T08:22:05;19.23;;;7.83;;
72087;SDS011;59961;50.232;8.616;2022-12-18T08:24:30;21.13;;;8.10;;
72087;SDS011;59961;50.232;8.616;2022-12-18T08:26:55;17.23;;;7.30;;
72087;SDS011;59961;50.232;8.616;2022-12-18T08:29:22;21.55;;;7.80;;
72087;SDS011;59961;50.232;8.616;2022-12-18T08:31:47;19.23;;;8.33;;
72087;SDS011;59961;50.232;8.616;2022-12-18T08:34:12;18.73;;;7.78;;
72087;SDS011;59961;50.232;8.616;2022-12-18T08:36:37;14.10;;;7.30;;
72087;SDS011;59961;50.232;8.616;2022-12-18T08:39:02;18.52;;;6.28;;
72087;SDS011;59961;50.232;8.616;2022-12-18T08:41:28;17.47;;;7.20;;
72087;SDS011;59961;50.232;8.616;2022-12-18T08:43:53;18.63;;;7.43;;
72087;SDS011;59961;50.232;8.616;2022-12-18T08:46:38;20.93;;;9.83;;
72087;SDS011;59961;50.232;8.616;2022-12-18T08:49:04;16.80;;;8.45;;
72087;SDS011;59961;50.232;8.616;2022-12-18T08:51:29;21.33;;;8.55;;
72087;SDS011;59961;50.232;8.616;2022-12-18T08:53:55;18.00;;;7.83;;
72087;SDS011;59961;50.232;8.616;2022-12-18T08:56:20;21.60;;;8.20;;
72087;SDS011;59961;50.232;8.616;2022-12-18T08:58:45;19.50;;;7.77;;
72087;SDS011;59961;50.232;8.616;2022-12-18T09:01:11;20.90;;;7.87;;
72087;SDS011;59961;50.232;8.616;2022-12-18T09:03:37;21.42;;;8.10;;
72087;SDS011;59961;50.232;8.616;2022-12-18T09:06:02;16.37;;;7.67;;
72087;SDS011;59961;50.232;8.616;2022-12-18T09:08:27;18.70;;;7.33;;
72087;SDS011;59961;50.232;8.616;2022-12-18T09:10:52;16.77;;;7.83;;
72087;SDS011;59961;50.232;8.616;2022-12-18T09:13:18;14.25;;;6.85;;
72087;SDS011;59961;50.232;8.616;2022-12-18T09:15:44;20.30;;;8.40;;
72087;SDS011;59961;50.232;8.616;2022-12-18T09:18:10;23.83;;;8.38;;
72087;SDS011;59961;50.232;8.616;2022-12-18T09:20:35;24.90;;;8.50;;
72087;SDS011;59961;50.232;8.616;2022-12-18T09:23:01;17.90;;;7.83;;
72087;SDS011;59961;50.232;8.616;2022-12-18T09:25:26;19.33;;;7.60;;
72087;SDS011;59961;50.232;8.616;2022-12-18T09:27:56;18.15;;;8.55;;
72087;SDS011;59961;50.232;8.616;2022-12-18T09:30:21;16.13;;;7.55;;
72087;SDS011;59961;50.232;8.616;2022-12-18T09:32:46;17.73;;;7.50;;
72087;SDS011;59961;50.232;8.616;2022-12-18T09:35:12;18.98;;;7.65;;
72087;SDS011;59961;50.232;8.616;2022-12-18T09:37:37;16.47;;;7.87;;
72087;SDS011;59961;50.232;8.616;2022-12-18T09:40:02;18.63;;;8.03;;
72087;SDS011;59961;50.232;8.616;2022-12-18T09:42:28;18.20;;;7.90;;
72087;SDS011;59961;50.232;8.616;2022-12-18T09:44:53;21.50;;;8.23;;
72087;SDS011;59961;50.232;8.616;2022-12-18T09:47:20;16.02;;;7.65;;
72087;SDS011;59961;50.232;8.616;2022-12-18T09:50:04;19.27;;;8.50;;
72087;SDS011;59961;50.232;8.616;2022-12-18T09:52:32;17.73;;;7.47;;
72087;SDS011;59961;50.232;8.616;2022-12-18T09:57:44;18.98;;;7.68;;
72087;SDS011;59961;50.232;8.616;2022-12-18T10:02:35;19.43;;;8.40;;
72087;SDS011;59961;50.232;8.616;2022-12-18T10:05:09;19.50;;;8.20;;
72087;SDS011;59961;50.232;8.616;2022-12-18T10:10:06;17.90;;;8.32;;
72087;SDS011;59961;50.232;8.616;2022-12-18T10:12:42;26.17;;;9.03;;
72087;SDS011;59961;50.232;8.616;2022-12-18T10:15:17;23.92;;;9.07;;
72087;SDS011;59961;50.232;8.616;2022-12-18T10:27:31;21.52;;;8.63;;
72087;SDS011;59961;50.232;8.616;2022-12-18T10:29:57;21.97;;;9.27;;
72087;SDS011;59961;50.232;8.616;2022-12-18T10:32:23;20.13;;;8.07;;
72087;SDS011;59961;50.232;8.616;2022-12-18T10:34:50;23.92;;;9.73;;
72087;SDS011;59961;50.232;8.616;2022-12-18T10:37:16;20.47;;;9.20;;
72087;SDS011;59961;50.232;8.616;2022-12-18T10:39:42;24.38;;;9.77;;
72087;SDS011;59961;50.232;8.616;2022-12-18T10:42:11;20.95;;;9.68;;
72087;SDS011;59961;50.232;8.616;2022-12-18T10:44:40;20.10;;;9.50;;
72087;SDS011;59961;50.232;8.616;2022-12-18T10:47:06;22.00;;;9.63;;
72087;SDS011;59961;50.232;8.616;2022-12-18T10:49:35;28.17;;;11.07;;
72087;SDS011;59961;50.232;8.616;2022-12-18T10:52:05;26.92;;;10.88;;
72087;SDS011;59961;50.232;8.616;2022-12-18T10:54:31;27.33;;;11.67;;
72087;SDS011;59961;50.232;8.616;2022-12-18T10:57:17;30.15;;;11.82;;
72087;SDS011;59961;50.232;8.616;2022-12-18T10:59:50;25.83;;;9.77;;
72087;SDS011;59961;50.232;8.616;2022-12-18T11:02:26;27.73;;;10.13;;
72087;SDS011;59961;50.232;8.616;2022-12-18T11:04:52;28.45;;;10.43;;
72087;SDS011;59961;50.232;8.616;2022-12-18T11:07:17;35.70;;;12.35;;
72087;SDS011;59961;50.232;8.616;2022-12-18T11:09:42;25.73;;;10.87;;
72087;SDS011;59961;50.232;8.616;2022-12-18T11:12:14;24.80;;;10.40;;
72087;SDS011;59961;50.232;8.616;2022-12-18T11:17:16;32.60;;;10.70;;
72087;SDS011;59961;50.232;8.616;2022-12-18T11:19:42;28.38;;;10.18;;
72087;SDS011;59961;50.232;8.616;2022-12-18T11:22:18;26.93;;;10.53;;
72087;SDS011;59961;50.232;8.616;2022-12-18T11:24:50;31.73;;;11.50;;
72087;SDS011;59961;50.232;8.616;2022-12-18T11:27:17;31.10;;;11.70;;
72087;SDS011;59961;50.232;8.616;2022-12-18T11:29:43;25.57;;;10.63;;
72087;SDS011;59961;50.232;8.616;2022-12-18T11:32:19;31.17;;;12.18;;
72087;SDS011;59961;50.232;8.616;2022-12-18T11:34:46;27.77;;;11.32;;
72087;SDS011;59961;50.232;8.616;2022-12-18T11:37:13;27.35;;;10.02;;
72087;SDS011;59961;50.232;8.616;2022-12-18T11:47:03;31.98;;;11.05;;
72087;SDS011;59961;50.232;8.616;2022-12-18T11:49:32;28.13;;;10.82;;
72087;SDS011;59961;50.232;8.616;2022-12-18T11:52:04;28.63;;;10.75;;
72087;SDS011;59961;50.232;8.616;2022-12-18T11:54:31;29.57;;;10.40;;
72087;SDS011;59961;50.232;8.616;2022-12-18T11:59:25;30.70;;;10.50;;
72087;SDS011;59961;50.232;8.616;2022-12-18T12:01:52;30.33;;;10.77;;
72087;SDS011;59961;50.232;8.616;2022-12-18T12:04:38;29.48;;;10.80;;
72087;SDS011;59961;50.232;8.616;2022-12-18T12:09:40;29.35;;;10.68;;
72087;SDS011;59961;50.232;8.616;2022-12-18T12:12:22;33.87;;;12.13;;
72087;SDS011;59961;50.232;8.616;2022-12-18T12:17:40;31.35;;;10.68;;
72087;SDS011;59961;50.232;8.616;2022-12-18T12:22:55;29.67;;;11.18;;
72087;SDS011;59961;50.232;8.616;2022-12-18T12:25:37;24.97;;;9.83;;
72087;SDS011;59961;50.232;8.616;2022-12-18T12:33:41;34.70;;;10.88;;
72087;SDS011;59961;50.232;8.616;2022-12-18T12:38:40;25.85;;;9.35;;
72087;SDS011;59961;50.232;8.616;2022-12-18T12:41:09;26.60;;;10.63;;
72087;SDS011;59961;50.232;8.616;2022-12-18T12:43:55;32.45;;;11.48;;
72087;SDS011;59961;50.232;8.616;2022-12-18T12:46:22;32.50;;;11.02;;
72087;SDS011;59961;50.232;8.616;2022-12-18T12:48:52;29.83;;;10.05;;
72087;SDS011;59961;50.232;8.616;2022-12-18T12:51:26;25.02;;;9.57;;
72087;SDS011;59961;50.232;8.616;2022-12-18T12:53:53;30.40;;;10.23;;
72087;SDS011;59961;50.232;8.616;2022-12-18T12:56:19;29.55;;;10.57;;
72087;SDS011;59961;50.232;8.616;2022-12-18T13:01:20;28.48;;;10.40;;
72087;SDS011;59961;50.232;8.616;2022-12-18T13:06:22;31.63;;;10.83;;
72087;SDS011;59961;50.232;8.616;2022-12-18T13:08:52;28.65;;;10.13;;
72087;SDS011;59961;50.232;8.616;2022-12-18T13:14:21;30.60;;;10.77;;
72087;SDS011;59961;50.232;8.616;2022-12-18T13:16:47;27.23;;;10.55;;
72087;SDS011;59961;50.232;8.616;2022-12-18T13:19:21;32.03;;;10.43;;
72087;SDS011;59961;50.232;8.616;2022-12-18T13:21:51;28.67;;;9.63;;
72087;SDS011;59961;50.232;8.616;2022-12-18T13:24:27;32.20;;;11.95;;
72087;SDS011;59961;50.232;8.616;2022-12-18T13:26:53;25.58;;;10.15;;
72087;SDS011;59961;50.232;8.616;2022-12-18T13:32:15;27.08;;;9.73;;
72087;SDS011;59961;50.232;8.616;2022-12-18T13:34:43;23.48;;;8.93;;
72087;SDS011;59961;50.232;8.616;2022-12-18T13:37:35;27.87;;;9.47;;
72087;SDS011;59961;50.232;8.616;2022-12-18T13:39:53;29.85;;;10.52;;
72087;SDS011;59961;50.232;8.616;2022-12-18T13:45:07;25.92;;;8.20;;
72087;SDS011;59961;50.232;8.616;2022-12-18T13:47:47;31.30;;;10.03;;
72087;SDS011;59961;50.232;8.616;2022-12-18T13:50:23;28.48;;;10.18;;
72087;SDS011;59961;50.232;8.616;2022-12-18T13:52:49;26.67;;;9.45;;
72087;SDS011;59961;50.232;8.616;2022-12-18T13:55:16;31.10;;;11.50;;
72087;SDS011;59961;50.232;8.616;2022-12-18T13:57:42;26.95;;;10.05;;
72087;SDS011;59961;50.232;8.616;2022-12-18T14:02:49;25.55;;;8.98;;
72087;SDS011;59961;50.232;8.616;2022-12-18T14:05:31;29.33;;;9.60;;
72087;SDS011;59961;50.232;8.616;2022-12-18T14:08:00;27.13;;;9.27;;
72087;SDS011;59961;50.232;8.616;2022-12-18T14:10:26;26.38;;;9.50;;
72087;SDS011;59961;50.232;8.616;2022-12-18T14:12:52;26.40;;;9.47;;
72087;SDS011;59961;50.232;8.616;2022-12-18T14:15:27;34.67;;;10.10;;
72087;SDS011;59961;50.232;8.616;2022-12-18T14:18:03;28.15;;;9.80;;
72087;SDS011;59961;50.232;8.616;2022-12-18T14:20:34;29.60;;;9.73;;
72087;SDS011;59961;50.232;8.616;2022-12-18T14:22:59;23.97;;;8.87;;
72087;SDS011;59961;50.232;8.616;2022-12-18T14:25:28;31.33;;;9.97;;
72087;SDS011;59961;50.232;8.616;2022-12-18T14:30:29;29.63;;;9.50;;
72087;SDS011;59961;50.232;8.616;2022-12-18T14:33:02;30.25;;;9.77;;
72087;SDS011;59961;50.232;8.616;2022-12-18T14:35:27;30.58;;;9.82;;
72087;SDS011;59961;50.232;8.616;2022-12-18T14:37:52;27.83;;;8.73;;
72087;SDS011;59961;50.232;8.616;2022-12-18T14:40:17;27.47;;;10.27;;
72087;SDS011;59961;50.232;8.616;2022-12-18T14:42:42;28.77;;;9.30;;
72087;SDS011;59961;50.232;8.616;2022-12-18T14:47:52;29.23;;;9.90;;
72087;SDS011;59961;50.232;8.616;2022-12-18T14:50:17;32.88;;;9.43;;
72087;SDS011;59961;50.232;8.616;2022-12-18T14:52:42;25.87;;;9.47;;
72087;SDS011;59961;50.232;8.616;2022-12-18T14:55:14;30.77;;;9.73;;
72087;SDS011;59961;50.232;8.616;2022-12-18T14:57:39;30.50;;;9.77;;
72087;SDS011;59961;50.232;8.616;2022-12-18T15:00:15;30.53;;;10.17;;
72087;SDS011;59961;50.232;8.616;2022-12-18T15:02:41;31.58;;;9.82;;
72087;SDS011;59961;50.232;8.616;2022-12-18T15:07:41;33.43;;;10.67;;
72087;SDS011;59961;50.232;8.616;2022-12-18T15:12:37;25.85;;;9.40;;
72087;SDS011;59961;50.232;8.616;2022-12-18T15:15:04;28.55;;;9.27;;
72087;SDS011;59961;50.232;8.616;2022-12-18T15:17:29;28.03;;;9.87;;
72087;SDS011;59961;50.232;8.616;2022-12-18T15:20:01;29.03;;;10.47;;
72087;SDS011;59961;50.232;8.616;2022-12-18T15:22:30;29.80;;;9.38;;
72087;SDS011;59961;50.232;8.616;2022-12-18T15:24:58;30.80;;;9.88;;
72087;SDS011;59961;50.232;8.616;2022-12-18T15:32:26;31.02;;;10.07;;
72087;SDS011;59961;50.232;8.616;2022-12-18T15:35:01;26.67;;;8.73;;
72087;SDS011;59961;50.232;8.616;2022-12-18T15:37:27;26.52;;;9.45;;
72087;SDS011;59961;50.232;8.616;2022-12-18T15:39:52;29.43;;;9.90;;
72087;SDS011;59961;50.232;8.616;2022-12-18T15:42:17;29.92;;;10.68;;
72087;SDS011;59961;50.232;8.616;2022-12-18T15:45:01;29.33;;;10.35;;
72087;SDS011;59961;50.232;8.616;2022-12-18T15:47:26;29.40;;;9.10;;
72087;SDS011;59961;50.232;8.616;2022-12-18T15:49:51;28.47;;;10.23;;
72087;SDS011;59961;50.232;8.616;2022-12-18T15:52:17;33.90;;;10.13;;
72087;SDS011;59961;50.232;8.616;2022-12-18T15:54:50;26.13;;;10.07;;
72087;SDS011;59961;50.232;8.616;2022-12-18T15:57:34;26.73;;;8.83;;
72087;SDS011;59961;50.232;8.616;2022-12-18T15:59:59;30.05;;;9.68;;
72087;SDS011;59961;50.232;8.616;2022-12-18T16:02:25;29.80;;;10.82;;
72087;SDS011;59961;50.232;8.616;2022-12-18T16:04:50;27.13;;;10.17;;
72087;SDS011;59961;50.232;8.616;2022-12-18T16:07:16;29.23;;;10.73;;